メインページ
METAR-TAF:

METAR-TAF

空港 :

アテネ国際空港

アテネ, ギリシャ

緯度: 37-56N, 経度: 023-56E, 海抜: 94m

現時点の気象観測

当レポートは18分前の20:20(UTC)に作成
南西の風 4kt
気温 6°C
湿度 81%
気圧 1015 hPa
視程10km以上
高度3000ftの雲はほとんどない
高度7000ftの雲は散在している

METAR: LGAV 112020Z 22004KT 9999 FEW030 SCT070 06/03 Q1015 NOSIG

時間: 22:38 (20:38 UTC)

予報

当レポートは3時間38分前の17:00(UTC)に作成
予報は11日の 18時(UTC)から 12日の 18時(UTC)まで有効
の風 10kt
視程10km以上
高度2000ftの雲は散在している
高度7000ftの千切れ雲あり
確率 40% :
11日の 18時(UTC)から 11日の 23時(UTC)まで一時的に
視程: 5000m
高度1500ftの雲はほとんどない
高度3000ftの千切れ雲あり
高度7000ftの千切れ雲あり
確率 30% :
11日の 18時(UTC)から 11日の 22時(UTC)まで一時的に
視程: 4000m
高度1000ftの雲はほとんどない
高度1800ftの雲はほとんどない, 積乱雲.
高度3000ftの千切れ雲あり
高度7000ftの曇り
激しい雷雨, 雨
11日の 18時(UTC)から 11日の 20時(UTC)まで徐々に
北/北西の風 15kt
12日の 10時(UTC)から 12日の 12時(UTC)まで徐々に
変向風 5kt

TAF: LGAV 111700Z 1118/1218 01010KT 9999 SCT020 BKN070 PROB40 TEMPO 1118/1123 5000 RA FEW015 BKN030 BKN070 PROB30 TEMPO 1118/1122 4000 TSRA FEW010 FEW018CB BKN030 OVC070 BECMG 1118/1120 33015KT BECMG 1210/1212 VRB05KT

4,000以上の空港の気象観測と天気予報(METAR報とTAF報)

利用可能な観測所は地図上に黄色い丸と赤い丸で示す。

丸の上にカーソルを重ねると観測所名を参照できる。

次にクリックすると気象観測と天気予報を参照できる。

マップの切り替え:黒色「×」印の緑ボタンをクリックして拡大、「-」印の緑ボタンをクリックして縮小、緑色の三角印をクリックして隣りの地図に切り替え


METAR-TAF: